Taytay, Philippines
Current Conditions -  °F | °C
As of 12:00 PM on Thursday 27 Nov 2014 (Local Time) from RPLL Reporting Station
Light Rain Light Rain  
Wind Chill: 81°   Ceiling: 10000
Heat Index: 89°   Visibility: 6mi
Dew Point: 81°   Wind: 2mph
Humidity: 100%   Direction: NA
Pressure: 29.83"   Gusts: NA
Location:  14.57°N, 121.13°E
Report Text: RPLL 270400Z VRB02KT 9999 -RA SCT023 OVC100 27/27 Q1010 NOSIG RMK A2983
Loading
Personal Weather Stations






























Interactive Weather Map New forecast layout! Learn more

10-Day Weather Forecast

Advertisements
Track Severe Weather on mobile